Time;durP1;ratioP1;P1;durP2;ratioP2;P2;SDS_P1;SDS_P2;PMS_P1;PMS_P2;Temp;Humidity;BMP_temperature;BMP_pressure;BME280_temperature;BME280_humidity;BME280_pressure;Samples;Min_cycle;Max_cycle;Signal;HPM_P1;HPM_P2
2020/12/28 00:01:34;;;;;;;4.30;2.00;;;;;;;;;;4972204;28;20030;-89
2020/12/28 00:03:59;;;;;;;3.90;2.00;;;;;;;;;;4972764;28;20019;-89
2020/12/28 00:06:24;;;;;;;3.63;1.90;;;;;;;;;;4973899;28;20102;-89
2020/12/28 00:08:50;;;;;;;5.23;2.07;;;;;;;;;;4972754;28;20019;-89
2020/12/28 00:11:18;;;;;;;4.37;2.53;;;;;;;;;;4972608;28;20450;-89
2020/12/28 00:13:44;;;;;;;3.97;1.87;;;;;;;;;;4972875;28;20019;-89
2020/12/28 00:16:10;;;;;;;5.30;2.30;;;;;;;;;;4972903;28;20026;-89
2020/12/28 00:18:35;;;;;;;6.00;2.53;;;;;;;;;;4972459;28;20113;-89
2020/12/28 00:21:01;;;;;;;7.27;2.60;;;;;;;;;;4972741;28;20053;-88
2020/12/28 00:23:26;;;;;;;5.43;2.57;;;;;;;;;;4972322;28;20076;-88
2020/12/28 00:25:51;;;;;;;7.37;2.33;;;;;;;;;;4972540;28;20046;-89
2020/12/28 00:28:16;;;;;;;6.53;2.10;;;;;;;;;;4972385;28;20022;-89
2020/12/28 00:30:41;;;;;;;5.43;2.07;;;;;;;;;;4968267;28;20098;-89
2020/12/28 00:33:06;;;;;;;8.47;2.30;;;;;;;;;;4969230;28;20439;-90
2020/12/28 00:35:32;;;;;;;8.47;2.47;;;;;;;;;;4971581;28;20029;-89
2020/12/28 00:37:57;;;;;;;7.70;2.20;;;;;;;;;;4971748;28;20023;-88
2020/12/28 00:40:22;;;;;;;6.07;2.07;;;;;;;;;;4972975;28;20489;-89
2020/12/28 00:42:47;;;;;;;6.30;2.40;;;;;;;;;;4971614;28;20113;-89
2020/12/28 00:45:12;;;;;;;3.70;1.97;;;;;;;;;;4971775;28;20023;-89
2020/12/28 00:47:38;;;;;;;5.97;2.20;;;;;;;;;;4973878;28;20050;-89
2020/12/28 00:50:04;;;;;;;6.63;2.20;;;;;;;;;;4975426;28;20023;-89
2020/12/28 00:52:29;;;;;;;5.27;1.90;;;;;;;;;;4976319;28;20022;-89
2020/12/28 00:54:54;;;;;;;5.83;2.00;;;;;;;;;;4975952;28;20027;-89
2020/12/28 00:57:19;;;;;;;6.00;2.03;;;;;;;;;;4975644;28;20023;-89
2020/12/28 00:59:44;;;;;;;7.30;2.77;;;;;;;;;;4975516;28;20038;-89
2020/12/28 01:02:10;;;;;;;7.27;2.07;;;;;;;;;;4976893;28;20378;-89
2020/12/28 01:04:35;;;;;;;7.03;2.50;;;;;;;;;;4975272;28;20054;-89
2020/12/28 01:07:00;;;;;;;5.67;1.80;;;;;;;;;;4975440;28;20029;-89
2020/12/28 01:09:25;;;;;;;4.33;2.27;;;;;;;;;;4975611;28;20026;-89
2020/12/28 01:11:50;;;;;;;6.10;2.30;;;;;;;;;;4975443;28;20015;-89
2020/12/28 01:14:16;;;;;;;9.33;2.60;;;;;;;;;;4975686;28;20031;-89
2020/12/28 01:16:44;;;;;;;5.67;2.70;;;;;;;;;;4976226;28;20022;-89
2020/12/28 01:19:09;;;;;;;5.67;2.40;;;;;;;;;;4975424;28;20034;-89
2020/12/28 01:21:34;;;;;;;7.13;2.60;;;;;;;;;;4975295;28;20023;-89
2020/12/28 01:24:00;;;;;;;6.67;2.60;;;;;;;;;;4975162;28;20023;-89
2020/12/28 01:26:25;;;;;;;9.03;2.70;;;;;;;;;;4976472;28;20038;-89
2020/12/28 01:28:50;;;;;;;4.33;2.43;;;;;;;;;;4975279;28;20019;-89
2020/12/28 01:31:15;;;;;;;6.83;3.00;;;;;;;;;;4964784;28;20022;-89
2020/12/28 01:33:41;;;;;;;8.40;3.17;;;;;;;;;;4973404;28;20465;-90
2020/12/28 01:36:06;;;;;;;4.27;2.47;;;;;;;;;;4975116;28;20101;-90
2020/12/28 01:38:31;;;;;;;4.23;2.20;;;;;;;;;;4974963;28;20019;-89
2020/12/28 01:40:57;;;;;;;5.33;2.40;;;;;;;;;;4973871;28;20447;-89
2020/12/28 01:43:23;;;;;;;5.80;2.60;;;;;;;;;;4964116;28;20110;-89
2020/12/28 01:45:49;;;;;;;6.07;3.00;;;;;;;;;;4974696;28;20018;-89
2020/12/28 01:48:14;;;;;;;5.70;2.80;;;;;;;;;;4975500;28;20102;-89
2020/12/28 01:50:39;;;;;;;9.13;2.90;;;;;;;;;;4974948;28;20023;-89
2020/12/28 01:53:04;;;;;;;6.93;2.37;;;;;;;;;;4975770;28;20015;-89
2020/12/28 01:55:30;;;;;;;6.83;2.70;;;;;;;;;;4974859;28;20126;-89
2020/12/28 01:57:56;;;;;;;3.80;2.23;;;;;;;;;;4974059;28;20031;-89
2020/12/28 02:00:21;;;;;;;4.33;2.70;;;;;;;;;;4974601;28;20034;-89
2020/12/28 02:02:46;;;;;;;7.93;2.70;;;;;;;;;;4974686;28;20355;-89
2020/12/28 02:05:11;;;;;;;3.30;2.30;;;;;;;;;;4974724;28;20382;-89
2020/12/28 02:07:38;;;;;;;6.30;2.70;;;;;;;;;;4974497;28;20026;-89
2020/12/28 02:10:07;;;;;;;5.43;2.10;;;;;;;;;;4974440;28;20030;-89
2020/12/28 02:12:32;;;;;;;5.13;2.30;;;;;;;;;;4974466;28;20113;-89
2020/12/28 02:14:57;;;;;;;5.13;2.60;;;;;;;;;;4974550;28;20473;-89
2020/12/28 02:17:24;;;;;;;4.17;2.67;;;;;;;;;;4974236;28;20026;-89
2020/12/28 02:19:49;;;;;;;4.90;2.80;;;;;;;;;;4974425;28;20038;-89
2020/12/28 02:22:15;;;;;;;6.17;2.80;;;;;;;;;;4974270;28;20022;-89
2020/12/28 02:24:40;;;;;;;3.50;2.17;;;;;;;;;;4974298;28;20023;-89
2020/12/28 02:27:05;;;;;;;4.63;2.83;;;;;;;;;;4975474;28;20033;-89
2020/12/28 02:29:30;;;;;;;6.20;2.90;;;;;;;;;;4974303;28;20026;-89
2020/12/28 02:31:58;;;;;;;3.83;2.70;;;;;;;;;;4975226;28;20135;-89
2020/12/28 02:34:24;;;;;;;4.87;2.70;;;;;;;;;;4973987;28;20015;-89
2020/12/28 02:36:49;;;;;;;5.97;2.83;;;;;;;;;;4973910;28;20030;-89
2020/12/28 02:39:14;;;;;;;6.30;3.30;;;;;;;;;;4973840;28;20065;-89
2020/12/28 02:41:39;;;;;;;5.97;2.93;;;;;;;;;;4974235;28;20068;-89
2020/12/28 02:44:04;;;;;;;5.73;2.90;;;;;;;;;;4973750;28;20485;-89
2020/12/28 02:46:30;;;;;;;5.57;3.03;;;;;;;;;;4973984;28;20011;-89
2020/12/28 02:48:55;;;;;;;6.43;3.10;;;;;;;;;;4973890;28;20122;-89
2020/12/28 02:51:20;;;;;;;6.10;3.13;;;;;;;;;;4973426;28;20041;-89
2020/12/28 02:53:45;;;;;;;9.13;3.20;;;;;;;;;;4974808;28;20478;-89
2020/12/28 02:56:10;;;;;;;5.33;2.93;;;;;;;;;;4973685;28;20030;-89
2020/12/28 02:58:36;;;;;;;7.40;2.90;;;;;;;;;;4973557;28;20065;-89
2020/12/28 03:01:01;;;;;;;6.87;3.13;;;;;;;;;;4960172;28;20027;-88
2020/12/28 03:03:26;;;;;;;7.00;2.60;;;;;;;;;;4973225;28;20452;-89
2020/12/28 03:05:51;;;;;;;5.37;2.83;;;;;;;;;;4974201;28;20037;-89
2020/12/28 03:08:16;;;;;;;5.97;2.60;;;;;;;;;;4973482;28;20022;-89
2020/12/28 03:10:42;;;;;;;6.20;2.77;;;;;;;;;;4972941;28;20019;-89
2020/12/28 03:13:07;;;;;;;5.20;2.40;;;;;;;;;;4973485;28;20018;-88
2020/12/28 03:15:32;;;;;;;8.60;3.20;;;;;;;;;;4973509;28;20495;-89
2020/12/28 03:17:57;;;;;;;7.13;2.93;;;;;;;;;;4973550;28;20161;-89
2020/12/28 03:20:22;;;;;;;7.97;3.27;;;;;;;;;;4972928;28;20030;-88
2020/12/28 03:22:47;;;;;;;10.53;3.30;;;;;;;;;;4973389;28;20049;-89
2020/12/28 03:25:13;;;;;;;4.77;2.63;;;;;;;;;;4973174;28;20485;-89
2020/12/28 03:27:38;;;;;;;5.60;2.70;;;;;;;;;;4973330;28;20026;-89
2020/12/28 03:30:03;;;;;;;6.97;2.77;;;;;;;;;;4973178;28;20034;-89
2020/12/28 03:32:28;;;;;;;7.43;2.60;;;;;;;;;;4973186;28;20089;-89
2020/12/28 03:34:53;;;;;;;5.47;2.27;;;;;;;;;;4972642;28;20549;-89
2020/12/28 03:37:19;;;;;;;9.57;2.50;;;;;;;;;;4974107;28;20026;-89
2020/12/28 03:39:44;;;;;;;5.30;2.20;;;;;;;;;;4973004;28;20038;-89
2020/12/28 03:42:09;;;;;;;5.90;2.43;;;;;;;;;;4974224;28;20034;-89
2020/12/28 03:44:34;;;;;;;5.37;2.90;;;;;;;;;;4972050;28;20029;-89
2020/12/28 03:46:59;;;;;;;7.50;2.40;;;;;;;;;;4973123;28;20467;-89
2020/12/28 03:49:25;;;;;;;4.90;2.10;;;;;;;;;;4972947;28;20023;-88
2020/12/28 03:51:50;;;;;;;4.60;2.20;;;;;;;;;;4972670;28;20023;-89
2020/12/28 03:54:15;;;;;;;6.57;1.90;;;;;;;;;;4973075;28;20033;-89
2020/12/28 03:56:40;;;;;;;6.73;2.30;;;;;;;;;;4972630;28;20035;-89
2020/12/28 03:59:06;;;;;;;7.73;2.07;;;;;;;;;;4972286;28;20031;-89
2020/12/28 04:01:32;;;;;;;5.17;1.90;;;;;;;;;;4972858;28;20030;-89
2020/12/28 04:03:57;;;;;;;5.93;2.27;;;;;;;;;;4972435;28;20090;-89
2020/12/28 04:06:22;;;;;;;6.50;2.70;;;;;;;;;;4972803;28;20015;-89
2020/12/28 04:08:47;;;;;;;5.87;2.10;;;;;;;;;;4974035;28;20575;-89
2020/12/28 04:11:13;;;;;;;4.47;2.00;;;;;;;;;;4968479;28;20074;-89
2020/12/28 04:13:38;;;;;;;5.47;2.10;;;;;;;;;;4963532;28;20026;-89
2020/12/28 04:16:03;;;;;;;7.37;2.10;;;;;;;;;;4972653;28;20046;-89
2020/12/28 04:18:29;;;;;;;5.87;1.83;;;;;;;;;;4972624;28;20022;-89
2020/12/28 04:20:54;;;;;;;9.43;2.07;;;;;;;;;;4973724;28;20042;-89
2020/12/28 04:23:19;;;;;;;10.23;2.17;;;;;;;;;;4976370;28;20014;-89
2020/12/28 04:25:44;;;;;;;8.03;2.30;;;;;;;;;;4975545;28;20478;-89
2020/12/28 04:28:09;;;;;;;7.97;1.93;;;;;;;;;;4975518;28;20083;-89
2020/12/28 04:30:34;;;;;;;4.70;1.77;;;;;;;;;;4975829;28;20042;-89
2020/12/28 04:33:00;;;;;;;4.30;1.60;;;;;;;;;;4975810;28;20477;-90
2020/12/28 04:35:25;;;;;;;5.00;1.77;;;;;;;;;;4975645;28;20033;-89
2020/12/28 04:37:50;;;;;;;7.90;2.07;;;;;;;;;;4976683;28;20025;-89
2020/12/28 04:40:15;;;;;;;5.67;1.70;;;;;;;;;;4975710;28;20117;-89
2020/12/28 04:42:42;;;;;;;5.03;1.60;;;;;;;;;;4975957;28;20057;-89
2020/12/28 04:45:07;;;;;;;8.23;1.60;;;;;;;;;;4975626;28;20478;-89
2020/12/28 04:47:33;;;;;;;6.17;1.73;;;;;;;;;;4975942;28;20029;-89
2020/12/28 04:49:59;;;;;;;5.70;1.63;;;;;;;;;;4975235;28;20034;-89
2020/12/28 04:52:25;;;;;;;9.47;1.80;;;;;;;;;;4975404;28;20041;-89
2020/12/28 04:54:50;;;;;;;5.20;1.63;;;;;;;;;;4975511;28;20035;-89
2020/12/28 04:57:15;;;;;;;5.83;1.50;;;;;;;;;;4977099;28;20023;-89
2020/12/28 04:59:41;;;;;;;8.27;1.87;;;;;;;;;;4975625;28;20304;-89
2020/12/28 05:02:09;;;;;;;5.63;2.00;;;;;;;;;;4975749;28;20023;-89
2020/12/28 05:04:34;;;;;;;5.20;1.83;;;;;;;;;;4976919;28;20031;-89
2020/12/28 05:06:59;;;;;;;5.37;1.37;;;;;;;;;;4975678;28;20107;-90
2020/12/28 05:09:25;;;;;;;4.07;1.53;;;;;;;;;;4975754;28;20027;-89
2020/12/28 05:12:10;;;;;;;5.87;1.70;;;;;;;;;;4976018;28;20015;-89
2020/12/28 05:14:36;;;;;;;4.23;1.40;;;;;;;;;;4975315;28;20038;-89
2020/12/28 05:17:02;;;;;;;5.27;1.50;;;;;;;;;;4976925;28;20064;-89
2020/12/28 05:19:27;;;;;;;7.23;1.20;;;;;;;;;;4975775;28;20015;-89
2020/12/28 05:21:54;;;;;;;3.83;1.30;;;;;;;;;;4976701;28;20026;-90
2020/12/28 05:24:19;;;;;;;4.50;1.60;;;;;;;;;;4976486;28;20069;-90
2020/12/28 05:26:45;;;;;;;5.60;1.30;;;;;;;;;;4976479;28;20022;-89
2020/12/28 05:29:16;;;;;;;4.47;1.70;;;;;;;;;;4975046;28;20134;-89
2020/12/28 05:31:42;;;;;;;11.17;1.70;;;;;;;;;;4975255;28;20442;-89
2020/12/28 05:34:16;;;;;;;5.97;1.50;;;;;;;;;;4974684;28;20417;-89
2020/12/28 05:36:42;;;;;;;4.97;1.60;;;;;;;;;;4962345;28;20038;-89
2020/12/28 05:39:08;;;;;;;5.03;1.60;;;;;;;;;;4975257;28;20058;-89
2020/12/28 05:41:33;;;;;;;6.70;1.60;;;;;;;;;;4975008;28;20342;-89
2020/12/28 05:44:09;;;;;;;7.30;1.90;;;;;;;;;;4975279;28;20100;-90
2020/12/28 05:46:34;;;;;;;9.00;1.57;;;;;;;;;;4975930;28;20427;-89
2020/12/28 05:49:00;;;;;;;5.23;1.47;;;;;;;;;;4975010;28;20023;-88
2020/12/28 05:51:26;;;;;;;4.17;1.50;;;;;;;;;;4973996;28;20043;-89
2020/12/28 05:53:52;;;;;;;6.00;1.47;;;;;;;;;;4974803;28;20034;-89
2020/12/28 05:56:17;;;;;;;6.90;1.60;;;;;;;;;;4968152;28;20103;-89
2020/12/28 05:58:43;;;;;;;2.60;1.10;;;;;;;;;;4970601;28;20141;-89
2020/12/28 06:01:09;;;;;;;7.00;1.37;;;;;;;;;;4974743;28;20019;-88
2020/12/28 06:03:35;;;;;;;3.10;1.23;;;;;;;;;;4975618;28;20492;-89
2020/12/28 06:06:00;;;;;;;4.70;1.43;;;;;;;;;;4974395;28;20058;-89
2020/12/28 06:08:26;;;;;;;4.20;1.23;;;;;;;;;;4974106;28;20049;-90
2020/12/28 06:10:51;;;;;;;6.07;1.03;;;;;;;;;;4969562;28;20497;-90
2020/12/28 06:13:20;;;;;;;4.13;1.30;;;;;;;;;;4974263;28;20027;-89
2020/12/28 06:15:55;;;;;;;3.37;0.90;;;;;;;;;;4974428;28;20385;-90
2020/12/28 06:18:21;;;;;;;6.00;1.30;;;;;;;;;;4974058;28;20030;-89
2020/12/28 06:20:46;;;;;;;8.10;1.17;;;;;;;;;;4975011;28;20110;-88
2020/12/28 06:23:11;;;;;;;3.43;1.33;;;;;;;;;;4973753;28;20021;-89
2020/12/28 06:25:38;;;;;;;5.00;1.20;;;;;;;;;;4974109;28;20114;-89
2020/12/28 06:28:03;;;;;;;4.47;0.90;;;;;;;;;;4974122;28;20370;-89
2020/12/28 06:30:28;;;;;;;4.10;1.20;;;;;;;;;;4973717;28;20081;-88
2020/12/28 06:33:04;;;;;;;6.63;1.70;;;;;;;;;;4973504;28;20019;-88
2020/12/28 06:35:29;;;;;;;3.93;1.27;;;;;;;;;;4973505;28;20026;-89
2020/12/28 06:37:54;;;;;;;7.33;1.33;;;;;;;;;;4973588;28;20019;-89
2020/12/28 06:40:30;;;;;;;3.80;1.23;;;;;;;;;;4973776;28;20019;-89
2020/12/28 06:43:08;;;;;;;6.37;1.70;;;;;;;;;;4973627;28;20022;-89
2020/12/28 06:45:33;;;;;;;5.47;1.83;;;;;;;;;;4972481;28;20346;-88
2020/12/28 06:47:59;;;;;;;6.97;1.60;;;;;;;;;;4973298;28;20019;-89
2020/12/28 06:50:24;;;;;;;4.00;1.27;;;;;;;;;;4973531;28;20027;-89
2020/12/28 06:52:50;;;;;;;3.80;1.20;;;;;;;;;;4973385;28;20501;-89
2020/12/28 06:55:15;;;;;;;4.27;1.20;;;;;;;;;;4973264;28;20030;-88
2020/12/28 06:57:40;;;;;;;9.47;1.10;;;;;;;;;;4972750;28;20402;-90
2020/12/28 07:00:06;;;;;;;5.00;1.00;;;;;;;;;;4974450;28;20030;-88
2020/12/28 07:02:32;;;;;;;7.73;1.10;;;;;;;;;;4973112;28;20423;-89
2020/12/28 07:05:00;;;;;;;4.23;1.10;;;;;;;;;;4973143;28;20122;-88
2020/12/28 07:07:25;;;;;;;9.47;1.40;;;;;;;;;;4973134;28;20034;-88
2020/12/28 07:09:50;;;;;;;7.90;1.40;;;;;;;;;;4964443;28;20023;-89
2020/12/28 07:12:16;;;;;;;5.23;1.60;;;;;;;;;;4969996;28;20023;-89
2020/12/28 07:14:41;;;;;;;6.90;2.00;;;;;;;;;;4969901;28;20059;-89
2020/12/28 07:17:06;;;;;;;7.40;2.23;;;;;;;;;;4969022;28;20030;-89
2020/12/28 07:19:32;;;;;;;5.77;2.20;;;;;;;;;;4972252;28;20035;-89
2020/12/28 07:21:57;;;;;;;6.77;2.00;;;;;;;;;;4965734;28;20089;-88
2020/12/28 07:24:22;;;;;;;6.60;1.40;;;;;;;;;;4962521;28;20160;-88
2020/12/28 07:26:48;;;;;;;5.67;1.70;;;;;;;;;;4972420;28;20034;-89
2020/12/28 07:29:14;;;;;;;4.90;1.70;;;;;;;;;;4973121;28;20027;-90
2020/12/28 07:31:39;;;;;;;5.70;1.60;;;;;;;;;;4972556;28;20026;-91
2020/12/28 07:34:05;;;;;;;7.37;1.63;;;;;;;;;;4964524;28;20451;-91
2020/12/28 07:36:30;;;;;;;9.93;2.00;;;;;;;;;;4969428;28;20023;-91
2020/12/28 07:38:56;;;;;;;9.67;3.23;;;;;;;;;;4969126;28;20038;-91
2020/12/28 07:41:22;;;;;;;8.20;2.73;;;;;;;;;;4966732;28;20478;-91
2020/12/28 07:43:54;;;;;;;4.87;1.83;;;;;;;;;;4960624;28;20038;-91
2020/12/28 07:46:19;;;;;;;;;;;;;;;;;;4968718;28;20059;-90
2020/12/28 07:48:45;;;;;;;11.50;1.73;;;;;;;;;;4969715;28;20895;-90
2020/12/28 07:51:13;;;;;;;7.77;1.73;;;;;;;;;;4978758;28;20466;-90
2020/12/28 07:53:41;;;;;;;10.37;1.90;;;;;;;;;;4971436;28;20085;-91
2020/12/28 07:56:08;;;;;;;5.80;2.50;;;;;;;;;;4970121;28;20077;-90
2020/12/28 07:58:45;;;;;;;5.67;2.07;;;;;;;;;;4970732;28;20026;-90
2020/12/28 08:01:15;;;;;;;5.27;1.90;;;;;;;;;;4972096;28;20061;-90
2020/12/28 08:03:43;;;;;;;5.57;1.90;;;;;;;;;;4969300;28;20015;-91
2020/12/28 08:06:09;;;;;;;7.17;1.70;;;;;;;;;;4957632;28;20020;-88
2020/12/28 08:08:35;;;;;;;7.40;1.40;;;;;;;;;;4970635;28;20022;-91
2020/12/28 08:11:01;;;;;;;9.90;2.00;;;;;;;;;;4971796;28;20062;-91
2020/12/28 08:13:27;;;;;;;5.43;1.90;;;;;;;;;;4972148;28;20046;-90
2020/12/28 08:15:52;;;;;;;8.50;2.70;;;;;;;;;;4969280;28;20030;-90
2020/12/28 08:18:18;;;;;;;6.83;2.07;;;;;;;;;;4968907;28;20040;-89
2020/12/28 08:20:54;;;;;;;9.07;2.13;;;;;;;;;;4971985;28;20235;-92
2020/12/28 08:23:23;;;;;;;8.57;2.63;;;;;;;;;;4970564;28;20081;-88
2020/12/28 08:25:48;;;;;;;11.87;3.17;;;;;;;;;;4967739;28;20030;-90
2020/12/28 08:28:13;;;;;;;10.40;3.97;;;;;;;;;;4971350;28;20110;-90
2020/12/28 08:30:40;;;;;;;18.47;5.23;;;;;;;;;;4971944;28;20017;-90
2020/12/28 08:33:05;;;;;;;13.70;5.00;;;;;;;;;;4971455;28;20038;-91
2020/12/28 08:35:31;;;;;;;11.17;3.37;;;;;;;;;;4965773;28;20035;-90
2020/12/28 08:37:56;;;;;;;5.70;2.23;;;;;;;;;;4965555;28;20077;-91
2020/12/28 08:40:22;;;;;;;5.03;2.27;;;;;;;;;;4968789;28;20079;-90
2020/12/28 08:42:55;;;;;;;5.57;2.47;;;;;;;;;;4963487;28;20037;-90
2020/12/28 08:45:21;;;;;;;7.87;2.47;;;;;;;;;;4970677;28;20663;-89
2020/12/28 08:47:50;;;;;;;7.20;2.30;;;;;;;;;;4965727;28;20034;-91
2020/12/28 08:50:15;;;;;;;7.40;2.33;;;;;;;;;;4970572;28;20018;-93
2020/12/28 08:52:51;;;;;;;6.13;1.73;;;;;;;;;;4967387;28;20058;-89
2020/12/28 08:55:17;;;;;;;3.50;1.42;;;;;;;;;;4985196;28;20121;-93
2020/12/28 08:57:48;;;;;;;6.93;1.23;;;;;;;;;;4972393;28;20057;-93
2020/12/28 09:00:13;;;;;;;5.60;1.77;;;;;;;;;;4971815;28;20435;-93
2020/12/28 09:02:49;;;;;;;7.70;1.95;;;;;;;;;;4971399;28;20065;-94
2020/12/28 09:05:14;;;;;;;5.93;2.00;;;;;;;;;;4969946;28;20372;-93
2020/12/28 09:07:39;;;;;;;4.28;1.50;;;;;;;;;;4963470;28;20022;-91
2020/12/28 09:10:05;;;;;;;15.48;1.52;;;;;;;;;;4951005;28;20138;-91
2020/12/28 09:12:30;;;;;;;7.45;1.45;;;;;;;;;;4965273;28;20061;-90
2020/12/28 09:14:55;;;;;;;4.55;1.65;;;;;;;;;;4976178;28;20377;-92
2020/12/28 09:17:20;;;;;;;6.13;1.50;;;;;;;;;;4975784;28;20019;-96
2020/12/28 09:19:46;;;;;;;5.13;1.48;;;;;;;;;;4958461;29;20090;-93
2020/12/28 09:22:11;;;;;;;4.88;1.52;;;;;;;;;;4973327;28;20031;-92
2020/12/28 09:24:36;;;;;;;5.63;1.38;;;;;;;;;;4979426;28;20025;-93
2020/12/28 09:27:01;;;;;;;3.63;1.40;;;;;;;;;;4979278;28;20145;-92
2020/12/28 09:29:27;;;;;;;4.57;1.20;;;;;;;;;;4979365;28;20031;-92
2020/12/28 09:31:52;;;;;;;4.13;1.55;;;;;;;;;;4979200;28;20394;-93
2020/12/28 09:34:17;;;;;;;8.43;2.00;;;;;;;;;;4978723;28;20019;-92
2020/12/28 09:36:42;;;;;;;8.43;2.00;;;;;;;;;;4979631;28;20386;-93
2020/12/28 09:39:08;;;;;;;7.18;1.85;;;;;;;;;;4978838;28;20078;-92
2020/12/28 09:41:33;;;;;;;4.88;1.15;;;;;;;;;;4980253;28;20445;-93
2020/12/28 09:43:58;;;;;;;8.35;1.90;;;;;;;;;;4978736;28;20454;-92
2020/12/28 09:46:23;;;;;;;7.15;2.00;;;;;;;;;;4970402;28;20027;-92
2020/12/28 09:48:49;;;;;;;4.85;1.80;;;;;;;;;;4974768;28;20030;-92
2020/12/28 09:51:15;;;;;;;3.85;1.67;;;;;;;;;;4970899;28;20023;-92
2020/12/28 09:53:40;;;;;;;6.20;1.63;;;;;;;;;;4970426;28;20015;-92
2020/12/28 09:56:06;;;;;;;3.72;1.33;;;;;;;;;;4978159;28;20066;-93
2020/12/28 09:58:32;;;;;;;9.00;1.60;;;;;;;;;;4971757;28;20070;-92
2020/12/28 10:00:57;;;;;;;3.75;1.60;;;;;;;;;;4977096;28;20026;-93
2020/12/28 10:03:23;;;;;;;9.13;2.25;;;;;;;;;;4980344;28;20501;-93
2020/12/28 10:05:48;;;;;;;5.93;1.55;;;;;;;;;;4971594;28;20054;-93
2020/12/28 10:08:13;;;;;;;5.30;1.40;;;;;;;;;;4975086;28;20027;-92
2020/12/28 10:10:38;;;;;;;5.85;1.63;;;;;;;;;;4981474;28;20026;-93
2020/12/28 10:13:04;;;;;;;4.78;1.80;;;;;;;;;;4979711;28;20030;-92
2020/12/28 10:15:29;;;;;;;3.97;1.45;;;;;;;;;;4979483;28;20356;-93
2020/12/28 10:18:09;;;;;;;5.05;1.50;;;;;;;;;;4981594;28;20027;-93
2020/12/28 10:20:35;;;;;;;4.82;1.50;;;;;;;;;;4980324;28;20027;-93
2020/12/28 10:23:00;;;;;;;5.97;1.58;;;;;;;;;;4980167;28;20023;-93
2020/12/28 10:25:25;;;;;;;6.30;2.30;;;;;;;;;;4979470;28;20069;-92
2020/12/28 10:27:50;;;;;;;8.10;2.72;;;;;;;;;;4979420;28;20027;-93
2020/12/28 10:30:15;;;;;;;7.80;2.10;;;;;;;;;;4980154;28;20049;-92
2020/12/28 10:32:41;;;;;;;5.20;1.45;;;;;;;;;;4979930;28;20248;-93
2020/12/28 10:35:06;;;;;;;3.40;1.55;;;;;;;;;;4978157;28;20105;-93
2020/12/28 10:37:31;;;;;;;5.63;1.60;;;;;;;;;;4977719;28;20019;-93
2020/12/28 10:39:57;;;;;;;5.47;1.45;;;;;;;;;;4977164;28;20447;-93
2020/12/28 10:42:22;;;;;;;3.53;1.47;;;;;;;;;;4967646;28;20030;-93
2020/12/28 10:44:47;;;;;;;3.05;1.48;;;;;;;;;;4976998;28;20110;-93
2020/12/28 10:47:12;;;;;;;5.72;1.60;;;;;;;;;;4971824;28;20020;-93
2020/12/28 10:49:38;;;;;;;5.47;1.48;;;;;;;;;;4975345;28;20077;-93
2020/12/28 10:52:03;;;;;;;4.28;1.50;;;;;;;;;;4978229;28;20102;-92
2020/12/28 10:54:28;;;;;;;3.63;1.33;;;;;;;;;;4975954;28;20391;-92
2020/12/28 10:56:55;;;;;;;9.50;1.60;;;;;;;;;;4977069;28;20117;-93
2020/12/28 10:59:21;;;;;;;7.00;1.60;;;;;;;;;;4972760;28;20402;-92
2020/12/28 11:01:46;;;;;;;4.55;1.45;;;;;;;;;;4973507;28;20033;-92
2020/12/28 11:04:11;;;;;;;7.10;2.17;;;;;;;;;;4979281;28;20053;-93
2020/12/28 11:06:40;;;;;;;6.00;1.90;;;;;;;;;;4973015;28;20019;-93
2020/12/28 11:09:05;;;;;;;7.45;2.72;;;;;;;;;;4973459;28;20083;-92
2020/12/28 11:11:31;;;;;;;8.02;2.42;;;;;;;;;;4973501;28;20046;-92
2020/12/28 11:13:56;;;;;;;7.53;2.42;;;;;;;;;;4973191;28;20050;-92
2020/12/28 11:16:25;;;;;;;3.90;1.88;;;;;;;;;;4971089;28;20421;-92
2020/12/28 11:18:50;;;;;;;5.43;1.35;;;;;;;;;;4971139;28;20119;-93
2020/12/28 11:21:15;;;;;;;6.55;2.33;;;;;;;;;;4967110;28;20113;-95
2020/12/28 11:24:02;;;;;;;4.17;2.10;;;;;;;;;;4975563;28;20069;-96
2020/12/28 11:26:36;;;;;;;4.13;1.80;;;;;;;;;;4976326;28;20023;-93
2020/12/28 11:29:03;;;;;;;7.90;1.63;;;;;;;;;;4974720;28;20585;-95
2020/12/28 11:31:28;;;;;;;6.37;1.63;;;;;;;;;;4976179;28;20378;-96
2020/12/28 11:33:53;;;;;;;7.67;1.90;;;;;;;;;;4974679;28;20018;-96
2020/12/28 11:36:19;;;;;;;5.37;1.90;;;;;;;;;;4973565;28;20030;-93
2020/12/28 11:38:45;;;;;;;6.80;2.13;;;;;;;;;;4973082;28;20363;-95
2020/12/28 11:41:12;;;;;;;12.43;2.53;;;;;;;;;;4973429;28;20462;-94
2020/12/28 11:43:37;;;;;;;6.37;1.90;;;;;;;;;;4973437;28;20029;-94
2020/12/28 11:46:02;;;;;;;7.17;2.10;;;;;;;;;;4973303;28;20019;-94
2020/12/28 11:48:27;;;;;;;4.83;2.20;;;;;;;;;;4973427;28;20050;-94
2020/12/28 11:50:53;;;;;;;6.90;2.00;;;;;;;;;;4973381;28;20022;-94
2020/12/28 11:53:18;;;;;;;4.27;2.00;;;;;;;;;;4973408;28;20102;-94
2020/12/28 11:58:27;;;;;;;5.13;2.13;;;;;;;;;;4974629;28;20033;-92
2020/12/28 12:00:52;;;;;;;6.20;2.00;;;;;;;;;;4973248;28;20023;-94
2020/12/28 12:03:17;;;;;;;8.50;2.30;;;;;;;;;;4973543;28;20027;-93
2020/12/28 12:05:43;;;;;;;6.17;2.13;;;;;;;;;;4972990;28;20023;-93
2020/12/28 12:08:08;;;;;;;6.07;1.77;;;;;;;;;;4973367;28;20018;-94
2020/12/28 12:10:33;;;;;;;6.23;1.50;;;;;;;;;;4962551;28;20019;-95
2020/12/28 12:12:58;;;;;;;7.63;1.50;;;;;;;;;;4970343;28;20070;-93
2020/12/28 12:15:24;;;;;;;4.67;1.40;;;;;;;;;;4972715;28;20022;-93
2020/12/28 12:17:49;;;;;;;5.70;1.87;;;;;;;;;;4960879;28;20023;-94
2020/12/28 12:20:14;;;;;;;9.90;1.60;;;;;;;;;;4972802;28;20034;-94
2020/12/28 12:22:39;;;;;;;7.30;1.70;;;;;;;;;;4972958;28;20050;-95
2020/12/28 12:25:04;;;;;;;3.77;1.30;;;;;;;;;;4973151;28;20058;-93
2020/12/28 12:27:30;;;;;;;5.57;1.70;;;;;;;;;;4972927;28;20099;-91
2020/12/28 12:29:55;;;;;;;6.67;1.90;;;;;;;;;;4973005;28;20546;-91
2020/12/28 12:32:21;;;;;;;7.10;2.17;;;;;;;;;;4973022;28;20018;-93
2020/12/28 12:34:46;;;;;;;5.70;1.67;;;;;;;;;;4972653;28;20026;-92
2020/12/28 12:37:13;;;;;;;6.90;2.00;;;;;;;;;;4972789;28;20030;-92
2020/12/28 12:39:38;;;;;;;7.03;1.90;;;;;;;;;;4972751;28;20065;-92
2020/12/28 12:42:03;;;;;;;6.43;2.07;;;;;;;;;;4973038;28;20050;-93
2020/12/28 12:44:28;;;;;;;7.40;1.60;;;;;;;;;;4976397;28;20113;-94
2020/12/28 12:46:54;;;;;;;5.30;1.57;;;;;;;;;;4974167;28;20454;-93
2020/12/28 12:49:19;;;;;;;4.30;1.83;;;;;;;;;;4969276;28;20023;-92
2020/12/28 12:51:44;;;;;;;7.77;1.60;;;;;;;;;;4976178;28;20011;-93
2020/12/28 12:54:09;;;;;;;6.90;2.10;;;;;;;;;;4976438;28;20015;-93
2020/12/28 12:56:34;;;;;;;6.60;2.20;;;;;;;;;;4976410;28;20023;-93
2020/12/28 12:58:59;;;;;;;4.57;1.77;;;;;;;;;;4975883;28;20022;-93
2020/12/28 13:01:25;;;;;;;3.80;1.50;;;;;;;;;;4976215;28;20029;-94
2020/12/28 13:03:50;;;;;;;4.10;1.50;;;;;;;;;;4976023;28;20057;-92
2020/12/28 13:06:16;;;;;;;4.80;1.53;;;;;;;;;;4976586;28;20052;-93
2020/12/28 13:08:41;;;;;;;4.60;1.40;;;;;;;;;;4975978;28;20374;-93
2020/12/28 13:11:06;;;;;;;3.73;1.33;;;;;;;;;;4976253;28;20022;-93
2020/12/28 13:13:32;;;;;;;10.30;2.17;;;;;;;;;;4976216;28;20019;-93
2020/12/28 13:15:57;;;;;;;10.57;1.83;;;;;;;;;;4975920;28;20042;-92
2020/12/28 13:18:22;;;;;;;9.67;1.40;;;;;;;;;;4976008;28;20049;-93
2020/12/28 13:20:47;;;;;;;6.78;1.40;;;;;;;;;;4975811;28;20393;-93
2020/12/28 13:23:13;;;;;;;8.90;1.63;;;;;;;;;;4975821;28;20385;-93
2020/12/28 13:25:38;;;;;;;4.47;1.80;;;;;;;;;;4975917;28;20037;-93
2020/12/28 13:28:03;;;;;;;7.25;1.67;;;;;;;;;;4975521;28;20025;-94
2020/12/28 13:30:28;;;;;;;3.25;1.50;;;;;;;;;;4975921;28;20039;-94
2020/12/28 13:32:53;;;;;;;2.80;1.20;;;;;;;;;;4975595;28;20105;-93
2020/12/28 13:35:19;;;;;;;2.87;1.17;;;;;;;;;;4975778;28;20019;-93
2020/12/28 13:37:44;;;;;;;3.17;1.60;;;;;;;;;;4975570;28;20023;-94
2020/12/28 13:40:09;;;;;;;4.53;1.30;;;;;;;;;;4975554;28;20059;-93
2020/12/28 13:42:34;;;;;;;8.07;1.88;;;;;;;;;;4975685;28;20023;-93
2020/12/28 13:45:00;;;;;;;7.85;1.65;;;;;;;;;;4975427;28;20026;-93
2020/12/28 13:47:25;;;;;;;5.53;1.50;;;;;;;;;;4975596;28;20019;-92
2020/12/28 13:49:51;;;;;;;3.08;1.20;;;;;;;;;;4975234;28;20019;-93
2020/12/28 13:52:17;;;;;;;3.15;1.38;;;;;;;;;;4975427;28;20025;-93
2020/12/28 13:54:42;;;;;;;6.07;1.90;;;;;;;;;;4971252;28;20343;-93
2020/12/28 13:57:07;;;;;;;5.57;1.67;;;;;;;;;;4975237;28;20438;-92
2020/12/28 13:59:36;;;;;;;4.07;1.70;;;;;;;;;;4975244;28;20481;-93
2020/12/28 14:02:03;;;;;;;5.03;2.28;;;;;;;;;;4975298;28;20521;-94
2020/12/28 14:04:28;;;;;;;7.22;3.50;;;;;;;;;;4975051;28;20039;-93
2020/12/28 14:06:53;;;;;;;7.03;2.53;;;;;;;;;;4973666;28;20030;-93
2020/12/28 14:09:19;;;;;;;3.65;1.70;;;;;;;;;;4965193;28;20512;-92
2020/12/28 14:11:46;;;;;;;6.40;2.65;;;;;;;;;;4974776;28;20050;-93
2020/12/28 14:14:11;;;;;;;6.50;1.88;;;;;;;;;;4974040;28;20019;-92
2020/12/28 14:16:36;;;;;;;3.05;1.10;;;;;;;;;;4974940;28;20019;-93
2020/12/28 14:19:01;;;;;;;2.85;1.35;;;;;;;;;;4966509;28;20471;-94
2020/12/28 14:21:27;;;;;;;2.95;1.77;;;;;;;;;;4974857;28;20030;-93
2020/12/28 14:23:52;;;;;;;4.32;1.75;;;;;;;;;;4974658;28;20019;-92
2020/12/28 14:26:19;;;;;;;5.22;1.77;;;;;;;;;;4973587;28;20014;-93
2020/12/28 14:28:44;;;;;;;6.28;2.88;;;;;;;;;;4960291;28;20015;-93
2020/12/28 14:31:11;;;;;;;4.40;2.20;;;;;;;;;;4971611;28;20083;-93
2020/12/28 14:33:36;;;;;;;5.50;2.33;;;;;;;;;;4974596;28;20558;-94
2020/12/28 14:36:02;;;;;;;6.72;2.45;;;;;;;;;;4973830;28;20065;-93
2020/12/28 14:38:27;;;;;;;6.03;3.13;;;;;;;;;;4962345;28;20054;-93